sensor_id;sensor_type;location;lat;lon;timestamp;P1;durP1;ratioP1;P2;durP2;ratioP2
38266;SDS011;24063;51.794;19.578;2022-10-16T00:00:29;12.87;;;12.87;;
38266;SDS011;24063;51.794;19.578;2022-10-16T00:01:51;12.15;;;12.15;;
38266;SDS011;24063;51.794;19.578;2022-10-16T00:02:53;11.53;;;11.53;;
38266;SDS011;24063;51.794;19.578;2022-10-16T00:03:55;11.92;;;11.92;;
38266;SDS011;24063;51.794;19.578;2022-10-16T00:04:59;11.91;;;11.91;;
38266;SDS011;24063;51.794;19.578;2022-10-16T00:06:01;11.69;;;11.69;;
38266;SDS011;24063;51.794;19.578;2022-10-16T00:07:04;11.31;;;11.31;;
38266;SDS011;24063;51.794;19.578;2022-10-16T00:08:07;12.23;;;12.23;;
38266;SDS011;24063;51.794;19.578;2022-10-16T00:09:10;12.71;;;12.71;;
38266;SDS011;24063;51.794;19.578;2022-10-16T00:10:12;13.28;;;13.28;;
38266;SDS011;24063;51.794;19.578;2022-10-16T00:11:24;12.79;;;12.79;;
38266;SDS011;24063;51.794;19.578;2022-10-16T00:12:31;13.16;;;13.16;;
38266;SDS011;24063;51.794;19.578;2022-10-16T00:13:33;12.69;;;12.69;;
38266;SDS011;24063;51.794;19.578;2022-10-16T00:14:37;12.21;;;12.21;;
38266;SDS011;24063;51.794;19.578;2022-10-16T00:15:42;12.81;;;12.80;;
38266;SDS011;24063;51.794;19.578;2022-10-16T00:16:45;12.64;;;12.64;;
38266;SDS011;24063;51.794;19.578;2022-10-16T00:17:46;12.00;;;12.00;;
38266;SDS011;24063;51.794;19.578;2022-10-16T00:18:48;12.47;;;12.47;;
38266;SDS011;24063;51.794;19.578;2022-10-16T00:19:50;11.98;;;11.97;;
38266;SDS011;24063;51.794;19.578;2022-10-16T00:20:51;12.04;;;12.04;;
38266;SDS011;24063;51.794;19.578;2022-10-16T00:21:53;12.15;;;12.14;;
38266;SDS011;24063;51.794;19.578;2022-10-16T00:22:55;11.73;;;11.73;;
38266;SDS011;24063;51.794;19.578;2022-10-16T00:23:58;11.81;;;11.81;;
38266;SDS011;24063;51.794;19.578;2022-10-16T00:25:02;11.72;;;11.72;;
38266;SDS011;24063;51.794;19.578;2022-10-16T00:26:06;11.31;;;11.31;;
38266;SDS011;24063;51.794;19.578;2022-10-16T00:27:10;12.35;;;12.35;;
38266;SDS011;24063;51.794;19.578;2022-10-16T00:28:12;12.36;;;12.36;;
38266;SDS011;24063;51.794;19.578;2022-10-16T00:29:13;12.42;;;12.42;;
38266;SDS011;24063;51.794;19.578;2022-10-16T00:30:15;12.15;;;12.15;;
38266;SDS011;24063;51.794;19.578;2022-10-16T00:31:18;12.45;;;12.45;;
38266;SDS011;24063;51.794;19.578;2022-10-16T00:32:21;12.30;;;12.26;;
38266;SDS011;24063;51.794;19.578;2022-10-16T00:33:23;12.41;;;12.36;;
38266;SDS011;24063;51.794;19.578;2022-10-16T00:34:25;11.72;;;11.71;;
38266;SDS011;24063;51.794;19.578;2022-10-16T00:35:27;13.05;;;13.05;;
38266;SDS011;24063;51.794;19.578;2022-10-16T00:36:30;12.54;;;12.52;;
38266;SDS011;24063;51.794;19.578;2022-10-16T00:37:33;12.45;;;12.31;;
38266;SDS011;24063;51.794;19.578;2022-10-16T00:38:35;12.71;;;12.71;;
38266;SDS011;24063;51.794;19.578;2022-10-16T00:39:36;11.49;;;11.49;;
38266;SDS011;24063;51.794;19.578;2022-10-16T00:40:38;12.15;;;12.15;;
38266;SDS011;24063;51.794;19.578;2022-10-16T00:41:40;11.69;;;11.69;;
38266;SDS011;24063;51.794;19.578;2022-10-16T00:42:42;11.99;;;11.99;;
38266;SDS011;24063;51.794;19.578;2022-10-16T00:43:45;12.62;;;12.62;;
38266;SDS011;24063;51.794;19.578;2022-10-16T00:44:55;12.07;;;12.07;;
38266;SDS011;24063;51.794;19.578;2022-10-16T00:45:58;11.90;;;11.90;;
38266;SDS011;24063;51.794;19.578;2022-10-16T00:47:02;12.31;;;12.31;;
38266;SDS011;24063;51.794;19.578;2022-10-16T00:48:03;12.58;;;12.58;;
38266;SDS011;24063;51.794;19.578;2022-10-16T00:49:11;12.90;;;12.90;;
38266;SDS011;24063;51.794;19.578;2022-10-16T00:50:27;13.28;;;13.27;;
38266;SDS011;24063;51.794;19.578;2022-10-16T00:51:33;12.22;;;12.20;;
38266;SDS011;24063;51.794;19.578;2022-10-16T00:52:38;12.12;;;12.12;;
38266;SDS011;24063;51.794;19.578;2022-10-16T00:53:46;12.05;;;12.05;;
38266;SDS011;24063;51.794;19.578;2022-10-16T00:54:48;11.85;;;11.85;;
38266;SDS011;24063;51.794;19.578;2022-10-16T00:55:56;11.92;;;11.92;;
38266;SDS011;24063;51.794;19.578;2022-10-16T00:56:59;11.58;;;11.57;;
38266;SDS011;24063;51.794;19.578;2022-10-16T00:58:04;10.68;;;10.68;;
38266;SDS011;24063;51.794;19.578;2022-10-16T01:00:26;11.02;;;11.02;;
38266;SDS011;24063;51.794;19.578;2022-10-16T01:01:28;11.27;;;11.27;;
38266;SDS011;24063;51.794;19.578;2022-10-16T01:02:30;10.87;;;10.87;;
38266;SDS011;24063;51.794;19.578;2022-10-16T01:03:33;10.54;;;10.54;;
38266;SDS011;24063;51.794;19.578;2022-10-16T01:04:38;11.95;;;11.95;;
38266;SDS011;24063;51.794;19.578;2022-10-16T01:05:49;12.65;;;12.65;;
38266;SDS011;24063;51.794;19.578;2022-10-16T01:07:30;12.19;;;12.19;;
38266;SDS011;24063;51.794;19.578;2022-10-16T01:10:19;12.09;;;12.09;;
38266;SDS011;24063;51.794;19.578;2022-10-16T01:11:38;11.84;;;11.84;;
38266;SDS011;24063;51.794;19.578;2022-10-16T01:12:52;11.41;;;11.30;;
38266;SDS011;24063;51.794;19.578;2022-10-16T01:14:15;11.10;;;11.09;;
38266;SDS011;24063;51.794;19.578;2022-10-16T01:15:30;10.98;;;10.98;;
38266;SDS011;24063;51.794;19.578;2022-10-16T01:16:46;11.54;;;11.46;;
38266;SDS011;24063;51.794;19.578;2022-10-16T01:19:18;10.97;;;10.97;;
38266;SDS011;24063;51.794;19.578;2022-10-16T01:21:36;11.70;;;11.70;;
38266;SDS011;24063;51.794;19.578;2022-10-16T01:24:15;10.85;;;10.84;;
38266;SDS011;24063;51.794;19.578;2022-10-16T01:27:15;10.98;;;10.98;;
38266;SDS011;24063;51.794;19.578;2022-10-16T01:28:37;11.20;;;11.20;;
38266;SDS011;24063;51.794;19.578;2022-10-16T01:30:01;11.05;;;11.05;;
38266;SDS011;24063;51.794;19.578;2022-10-16T01:31:16;10.25;;;10.25;;
38266;SDS011;24063;51.794;19.578;2022-10-16T01:33:47;10.80;;;10.80;;
38266;SDS011;24063;51.794;19.578;2022-10-16T01:35:02;10.75;;;10.75;;
38266;SDS011;24063;51.794;19.578;2022-10-16T01:36:16;10.67;;;10.67;;
38266;SDS011;24063;51.794;19.578;2022-10-16T01:37:30;11.67;;;11.67;;
38266;SDS011;24063;51.794;19.578;2022-10-16T01:38:38;11.40;;;11.40;;
38266;SDS011;24063;51.794;19.578;2022-10-16T01:39:42;11.56;;;11.56;;
38266;SDS011;24063;51.794;19.578;2022-10-16T01:40:53;11.97;;;11.97;;
38266;SDS011;24063;51.794;19.578;2022-10-16T01:42:14;11.89;;;11.89;;
38266;SDS011;24063;51.794;19.578;2022-10-16T01:43:43;12.30;;;12.30;;
38266;SDS011;24063;51.794;19.578;2022-10-16T01:44:51;11.52;;;11.48;;
38266;SDS011;24063;51.794;19.578;2022-10-16T01:45:55;11.60;;;11.60;;
38266;SDS011;24063;51.794;19.578;2022-10-16T01:46:57;10.94;;;10.94;;
38266;SDS011;24063;51.794;19.578;2022-10-16T01:48:00;11.04;;;11.04;;
38266;SDS011;24063;51.794;19.578;2022-10-16T01:49:06;10.43;;;10.43;;
38266;SDS011;24063;51.794;19.578;2022-10-16T01:50:11;10.52;;;10.52;;
38266;SDS011;24063;51.794;19.578;2022-10-16T01:51:17;10.54;;;10.54;;
38266;SDS011;24063;51.794;19.578;2022-10-16T01:52:22;10.92;;;10.92;;
38266;SDS011;24063;51.794;19.578;2022-10-16T01:53:29;11.17;;;11.17;;
38266;SDS011;24063;51.794;19.578;2022-10-16T01:54:34;11.34;;;11.21;;
38266;SDS011;24063;51.794;19.578;2022-10-16T01:55:43;10.84;;;10.84;;
38266;SDS011;24063;51.794;19.578;2022-10-16T01:56:49;11.18;;;11.18;;
38266;SDS011;24063;51.794;19.578;2022-10-16T01:57:52;11.29;;;11.29;;
38266;SDS011;24063;51.794;19.578;2022-10-16T02:00:08;11.41;;;11.41;;
38266;SDS011;24063;51.794;19.578;2022-10-16T02:01:15;10.86;;;10.86;;
38266;SDS011;24063;51.794;19.578;2022-10-16T02:02:21;10.42;;;10.42;;
38266;SDS011;24063;51.794;19.578;2022-10-16T02:03:24;10.89;;;10.89;;
38266;SDS011;24063;51.794;19.578;2022-10-16T02:04:28;11.06;;;11.06;;
38266;SDS011;24063;51.794;19.578;2022-10-16T02:05:37;11.09;;;11.09;;
38266;SDS011;24063;51.794;19.578;2022-10-16T02:06:50;10.95;;;10.95;;
38266;SDS011;24063;51.794;19.578;2022-10-16T02:07:54;10.82;;;10.82;;
38266;SDS011;24063;51.794;19.578;2022-10-16T02:08:56;10.29;;;10.29;;
38266;SDS011;24063;51.794;19.578;2022-10-16T02:09:59;10.43;;;10.43;;
38266;SDS011;24063;51.794;19.578;2022-10-16T02:11:02;10.15;;;10.15;;
38266;SDS011;24063;51.794;19.578;2022-10-16T02:12:10;10.85;;;10.85;;
38266;SDS011;24063;51.794;19.578;2022-10-16T02:13:25;10.94;;;10.94;;
38266;SDS011;24063;51.794;19.578;2022-10-16T02:14:28;11.08;;;11.08;;
38266;SDS011;24063;51.794;19.578;2022-10-16T02:15:31;10.97;;;10.97;;
38266;SDS011;24063;51.794;19.578;2022-10-16T02:16:36;10.94;;;10.94;;
38266;SDS011;24063;51.794;19.578;2022-10-16T02:17:45;10.98;;;10.98;;
38266;SDS011;24063;51.794;19.578;2022-10-16T02:18:46;10.68;;;10.68;;
38266;SDS011;24063;51.794;19.578;2022-10-16T02:19:49;10.78;;;10.78;;
38266;SDS011;24063;51.794;19.578;2022-10-16T02:20:57;10.95;;;10.87;;
38266;SDS011;24063;51.794;19.578;2022-10-16T02:22:04;11.70;;;11.68;;
38266;SDS011;24063;51.794;19.578;2022-10-16T02:23:10;10.95;;;10.95;;
38266;SDS011;24063;51.794;19.578;2022-10-16T02:25:55;11.37;;;11.37;;
38266;SDS011;24063;51.794;19.578;2022-10-16T02:27:11;11.09;;;11.09;;
38266;SDS011;24063;51.794;19.578;2022-10-16T02:28:26;10.45;;;10.45;;
38266;SDS011;24063;51.794;19.578;2022-10-16T02:29:40;10.46;;;10.46;;
38266;SDS011;24063;51.794;19.578;2022-10-16T02:30:50;10.91;;;10.87;;
38266;SDS011;24063;51.794;19.578;2022-10-16T02:32:09;10.95;;;10.95;;
38266;SDS011;24063;51.794;19.578;2022-10-16T02:33:16;11.29;;;11.29;;
38266;SDS011;24063;51.794;19.578;2022-10-16T02:34:23;10.66;;;10.66;;
38266;SDS011;24063;51.794;19.578;2022-10-16T02:35:28;10.34;;;10.34;;
38266;SDS011;24063;51.794;19.578;2022-10-16T02:36:33;10.83;;;10.83;;
38266;SDS011;24063;51.794;19.578;2022-10-16T02:37:38;10.38;;;10.38;;
38266;SDS011;24063;51.794;19.578;2022-10-16T02:38:42;10.44;;;10.44;;
38266;SDS011;24063;51.794;19.578;2022-10-16T02:39:44;10.51;;;10.51;;
38266;SDS011;24063;51.794;19.578;2022-10-16T02:40:46;10.56;;;10.56;;
38266;SDS011;24063;51.794;19.578;2022-10-16T02:41:48;10.95;;;10.90;;
38266;SDS011;24063;51.794;19.578;2022-10-16T02:42:51;10.89;;;10.88;;
38266;SDS011;24063;51.794;19.578;2022-10-16T02:43:54;10.47;;;10.47;;
38266;SDS011;24063;51.794;19.578;2022-10-16T02:44:56;10.55;;;10.55;;
38266;SDS011;24063;51.794;19.578;2022-10-16T02:45:57;10.63;;;10.63;;
38266;SDS011;24063;51.794;19.578;2022-10-16T02:47:00;10.70;;;10.70;;
38266;SDS011;24063;51.794;19.578;2022-10-16T02:48:02;11.72;;;11.72;;
38266;SDS011;24063;51.794;19.578;2022-10-16T02:49:04;10.89;;;10.89;;
38266;SDS011;24063;51.794;19.578;2022-10-16T02:50:06;11.12;;;11.12;;
38266;SDS011;24063;51.794;19.578;2022-10-16T02:51:08;10.88;;;10.88;;
38266;SDS011;24063;51.794;19.578;2022-10-16T02:52:09;10.49;;;10.49;;
38266;SDS011;24063;51.794;19.578;2022-10-16T02:53:11;10.95;;;10.95;;
38266;SDS011;24063;51.794;19.578;2022-10-16T02:54:13;11.29;;;11.29;;
38266;SDS011;24063;51.794;19.578;2022-10-16T02:55:15;10.69;;;10.69;;
38266;SDS011;24063;51.794;19.578;2022-10-16T02:56:16;10.43;;;10.43;;
38266;SDS011;24063;51.794;19.578;2022-10-16T02:57:23;10.96;;;10.96;;
38266;SDS011;24063;51.794;19.578;2022-10-16T02:58:25;10.49;;;10.43;;
38266;SDS011;24063;51.794;19.578;2022-10-16T02:59:27;10.90;;;10.88;;
38266;SDS011;24063;51.794;19.578;2022-10-16T03:00:29;10.96;;;10.96;;
38266;SDS011;24063;51.794;19.578;2022-10-16T03:01:30;10.87;;;10.87;;
38266;SDS011;24063;51.794;19.578;2022-10-16T03:02:32;10.81;;;10.80;;
38266;SDS011;24063;51.794;19.578;2022-10-16T03:03:34;11.51;;;11.51;;
38266;SDS011;24063;51.794;19.578;2022-10-16T03:04:35;11.10;;;11.10;;
38266;SDS011;24063;51.794;19.578;2022-10-16T03:05:42;10.47;;;10.47;;
38266;SDS011;24063;51.794;19.578;2022-10-16T03:06:46;11.30;;;11.30;;
38266;SDS011;24063;51.794;19.578;2022-10-16T03:07:48;11.12;;;11.10;;
38266;SDS011;24063;51.794;19.578;2022-10-16T03:08:50;11.04;;;10.98;;
38266;SDS011;24063;51.794;19.578;2022-10-16T03:09:51;10.70;;;10.68;;
38266;SDS011;24063;51.794;19.578;2022-10-16T03:10:53;10.98;;;10.98;;
38266;SDS011;24063;51.794;19.578;2022-10-16T03:11:55;10.92;;;10.92;;
38266;SDS011;24063;51.794;19.578;2022-10-16T03:12:57;10.82;;;10.82;;
38266;SDS011;24063;51.794;19.578;2022-10-16T03:13:58;11.25;;;11.25;;
38266;SDS011;24063;51.794;19.578;2022-10-16T03:15:00;10.78;;;10.78;;
38266;SDS011;24063;51.794;19.578;2022-10-16T03:16:02;10.90;;;10.90;;
38266;SDS011;24063;51.794;19.578;2022-10-16T03:17:03;11.68;;;11.68;;
38266;SDS011;24063;51.794;19.578;2022-10-16T03:18:05;11.63;;;11.63;;
38266;SDS011;24063;51.794;19.578;2022-10-16T03:19:07;10.99;;;10.99;;
38266;SDS011;24063;51.794;19.578;2022-10-16T03:20:09;11.65;;;11.65;;
38266;SDS011;24063;51.794;19.578;2022-10-16T03:21:11;11.10;;;11.10;;
38266;SDS011;24063;51.794;19.578;2022-10-16T03:22:13;10.80;;;10.78;;
38266;SDS011;24063;51.794;19.578;2022-10-16T03:23:14;10.75;;;10.75;;
38266;SDS011;24063;51.794;19.578;2022-10-16T03:24:16;11.46;;;11.46;;
38266;SDS011;24063;51.794;19.578;2022-10-16T03:25:18;11.16;;;11.16;;
38266;SDS011;24063;51.794;19.578;2022-10-16T03:26:19;11.56;;;11.52;;
38266;SDS011;24063;51.794;19.578;2022-10-16T03:27:21;10.89;;;10.89;;
38266;SDS011;24063;51.794;19.578;2022-10-16T03:28:23;10.87;;;10.87;;
38266;SDS011;24063;51.794;19.578;2022-10-16T03:29:24;11.25;;;11.25;;
38266;SDS011;24063;51.794;19.578;2022-10-16T03:30:27;10.92;;;10.92;;
38266;SDS011;24063;51.794;19.578;2022-10-16T03:31:29;11.18;;;11.18;;
38266;SDS011;24063;51.794;19.578;2022-10-16T03:32:31;12.13;;;12.13;;
38266;SDS011;24063;51.794;19.578;2022-10-16T03:33:33;11.23;;;11.23;;
38266;SDS011;24063;51.794;19.578;2022-10-16T03:34:35;11.82;;;11.82;;
38266;SDS011;24063;51.794;19.578;2022-10-16T03:35:37;11.49;;;11.49;;
38266;SDS011;24063;51.794;19.578;2022-10-16T03:36:39;11.24;;;11.24;;
38266;SDS011;24063;51.794;19.578;2022-10-16T03:37:40;11.58;;;11.58;;
38266;SDS011;24063;51.794;19.578;2022-10-16T03:38:42;10.96;;;10.96;;
38266;SDS011;24063;51.794;19.578;2022-10-16T03:39:44;10.62;;;10.62;;
38266;SDS011;24063;51.794;19.578;2022-10-16T03:40:45;11.25;;;11.25;;
38266;SDS011;24063;51.794;19.578;2022-10-16T03:41:47;10.89;;;10.89;;
38266;SDS011;24063;51.794;19.578;2022-10-16T03:42:49;11.22;;;11.22;;
38266;SDS011;24063;51.794;19.578;2022-10-16T03:43:50;11.41;;;11.41;;
38266;SDS011;24063;51.794;19.578;2022-10-16T03:44:52;11.06;;;11.06;;
38266;SDS011;24063;51.794;19.578;2022-10-16T03:45:54;11.68;;;11.59;;
38266;SDS011;24063;51.794;19.578;2022-10-16T03:46:55;11.57;;;11.55;;
38266;SDS011;24063;51.794;19.578;2022-10-16T03:47:57;11.42;;;11.42;;
38266;SDS011;24063;51.794;19.578;2022-10-16T03:48:59;11.66;;;11.59;;
38266;SDS011;24063;51.794;19.578;2022-10-16T03:50:00;11.22;;;11.20;;
38266;SDS011;24063;51.794;19.578;2022-10-16T03:51:02;11.47;;;11.47;;
38266;SDS011;24063;51.794;19.578;2022-10-16T03:52:04;12.12;;;12.10;;
38266;SDS011;24063;51.794;19.578;2022-10-16T03:53:06;11.95;;;11.94;;
38266;SDS011;24063;51.794;19.578;2022-10-16T03:54:09;12.22;;;12.22;;
38266;SDS011;24063;51.794;19.578;2022-10-16T03:55:11;11.87;;;11.87;;
38266;SDS011;24063;51.794;19.578;2022-10-16T03:56:13;11.74;;;11.73;;
38266;SDS011;24063;51.794;19.578;2022-10-16T03:57:14;11.89;;;11.80;;
38266;SDS011;24063;51.794;19.578;2022-10-16T03:58:16;11.24;;;11.23;;
38266;SDS011;24063;51.794;19.578;2022-10-16T03:59:18;10.99;;;10.98;;
38266;SDS011;24063;51.794;19.578;2022-10-16T04:00:20;10.89;;;10.89;;
38266;SDS011;24063;51.794;19.578;2022-10-16T04:01:21;11.71;;;11.71;;
38266;SDS011;24063;51.794;19.578;2022-10-16T04:02:23;11.38;;;11.36;;
38266;SDS011;24063;51.794;19.578;2022-10-16T04:03:25;11.81;;;11.80;;
38266;SDS011;24063;51.794;19.578;2022-10-16T04:04:27;11.68;;;11.67;;
38266;SDS011;24063;51.794;19.578;2022-10-16T04:05:28;11.67;;;11.67;;
38266;SDS011;24063;51.794;19.578;2022-10-16T04:06:30;11.18;;;11.18;;
38266;SDS011;24063;51.794;19.578;2022-10-16T04:07:32;11.73;;;11.73;;
38266;SDS011;24063;51.794;19.578;2022-10-16T04:08:33;11.63;;;11.63;;
38266;SDS011;24063;51.794;19.578;2022-10-16T04:09:38;11.92;;;11.87;;
38266;SDS011;24063;51.794;19.578;2022-10-16T04:10:39;12.67;;;12.67;;
38266;SDS011;24063;51.794;19.578;2022-10-16T04:11:44;12.75;;;12.67;;
38266;SDS011;24063;51.794;19.578;2022-10-16T04:12:46;11.00;;;10.94;;
38266;SDS011;24063;51.794;19.578;2022-10-16T04:13:47;12.01;;;11.90;;
38266;SDS011;24063;51.794;19.578;2022-10-16T04:14:50;11.68;;;11.66;;
38266;SDS011;24063;51.794;19.578;2022-10-16T04:15:51;12.02;;;12.02;;
38266;SDS011;24063;51.794;19.578;2022-10-16T04:16:53;12.20;;;12.20;;
38266;SDS011;24063;51.794;19.578;2022-10-16T04:17:54;11.55;;;11.55;;
38266;SDS011;24063;51.794;19.578;2022-10-16T04:18:56;11.33;;;11.33;;
38266;SDS011;24063;51.794;19.578;2022-10-16T04:19:58;12.44;;;12.44;;
38266;SDS011;24063;51.794;19.578;2022-10-16T04:21:03;10.80;;;10.80;;
38266;SDS011;24063;51.794;19.578;2022-10-16T04:22:06;12.03;;;12.03;;
38266;SDS011;24063;51.794;19.578;2022-10-16T04:23:08;12.04;;;12.04;;
38266;SDS011;24063;51.794;19.578;2022-10-16T04:24:10;12.00;;;12.00;;
38266;SDS011;24063;51.794;19.578;2022-10-16T04:25:12;12.66;;;12.66;;
38266;SDS011;24063;51.794;19.578;2022-10-16T04:26:14;12.59;;;12.58;;
38266;SDS011;24063;51.794;19.578;2022-10-16T04:27:16;13.30;;;13.30;;
38266;SDS011;24063;51.794;19.578;2022-10-16T04:28:18;13.20;;;13.19;;
38266;SDS011;24063;51.794;19.578;2022-10-16T04:29:19;13.26;;;13.20;;
38266;SDS011;24063;51.794;19.578;2022-10-16T04:30:21;13.67;;;13.61;;
38266;SDS011;24063;51.794;19.578;2022-10-16T04:31:24;13.65;;;13.64;;
38266;SDS011;24063;51.794;19.578;2022-10-16T04:32:26;13.30;;;13.29;;
38266;SDS011;24063;51.794;19.578;2022-10-16T04:33:28;12.49;;;12.49;;
38266;SDS011;24063;51.794;19.578;2022-10-16T04:34:30;12.16;;;12.14;;
38266;SDS011;24063;51.794;19.578;2022-10-16T04:35:32;12.11;;;12.11;;
38266;SDS011;24063;51.794;19.578;2022-10-16T04:36:33;13.20;;;13.17;;
38266;SDS011;24063;51.794;19.578;2022-10-16T04:37:35;13.35;;;13.33;;
38266;SDS011;24063;51.794;19.578;2022-10-16T04:38:37;13.20;;;13.15;;
38266;SDS011;24063;51.794;19.578;2022-10-16T04:39:40;12.32;;;12.31;;
38266;SDS011;24063;51.794;19.578;2022-10-16T04:40:42;12.72;;;12.72;;
38266;SDS011;24063;51.794;19.578;2022-10-16T04:41:44;12.36;;;12.35;;
38266;SDS011;24063;51.794;19.578;2022-10-16T04:42:45;12.48;;;12.46;;
38266;SDS011;24063;51.794;19.578;2022-10-16T04:43:47;11.73;;;11.72;;
38266;SDS011;24063;51.794;19.578;2022-10-16T04:44:50;12.47;;;12.43;;
38266;SDS011;24063;51.794;19.578;2022-10-16T04:45:52;12.95;;;12.95;;
38266;SDS011;24063;51.794;19.578;2022-10-16T04:46:55;12.55;;;12.55;;
38266;SDS011;24063;51.794;19.578;2022-10-16T04:47:58;12.32;;;12.32;;
38266;SDS011;24063;51.794;19.578;2022-10-16T04:49:00;12.30;;;12.30;;
38266;SDS011;24063;51.794;19.578;2022-10-16T04:50:02;13.17;;;13.12;;
38266;SDS011;24063;51.794;19.578;2022-10-16T04:51:04;13.34;;;13.22;;
38266;SDS011;24063;51.794;19.578;2022-10-16T04:52:06;13.85;;;13.75;;
38266;SDS011;24063;51.794;19.578;2022-10-16T04:53:08;13.36;;;13.35;;
38266;SDS011;24063;51.794;19.578;2022-10-16T04:54:10;12.73;;;12.73;;
38266;SDS011;24063;51.794;19.578;2022-10-16T04:55:12;13.10;;;13.10;;
38266;SDS011;24063;51.794;19.578;2022-10-16T04:56:13;12.85;;;12.85;;
38266;SDS011;24063;51.794;19.578;2022-10-16T04:57:16;13.43;;;13.43;;
38266;SDS011;24063;51.794;19.578;2022-10-16T04:58:19;13.84;;;13.84;;
38266;SDS011;24063;51.794;19.578;2022-10-16T04:59:21;12.48;;;12.48;;
38266;SDS011;24063;51.794;19.578;2022-10-16T05:00:24;12.32;;;12.32;;
38266;SDS011;24063;51.794;19.578;2022-10-16T05:01:26;12.95;;;12.95;;
38266;SDS011;24063;51.794;19.578;2022-10-16T05:02:28;12.56;;;12.56;;
38266;SDS011;24063;51.794;19.578;2022-10-16T05:03:29;12.28;;;12.28;;
38266;SDS011;24063;51.794;19.578;2022-10-16T05:04:36;12.96;;;12.96;;
38266;SDS011;24063;51.794;19.578;2022-10-16T05:05:41;12.52;;;12.51;;
38266;SDS011;24063;51.794;19.578;2022-10-16T05:06:44;13.38;;;13.38;;
38266;SDS011;24063;51.794;19.578;2022-10-16T05:07:46;13.24;;;13.23;;
38266;SDS011;24063;51.794;19.578;2022-10-16T05:08:49;13.26;;;13.26;;
38266;SDS011;24063;51.794;19.578;2022-10-16T05:09:50;12.67;;;12.67;;
38266;SDS011;24063;51.794;19.578;2022-10-16T05:10:53;12.69;;;12.67;;
38266;SDS011;24063;51.794;19.578;2022-10-16T05:11:54;12.52;;;12.51;;
38266;SDS011;24063;51.794;19.578;2022-10-16T05:12:56;12.28;;;12.28;;
38266;SDS011;24063;51.794;19.578;2022-10-16T05:13:58;12.92;;;12.89;;
38266;SDS011;24063;51.794;19.578;2022-10-16T05:15:00;12.73;;;12.58;;
38266;SDS011;24063;51.794;19.578;2022-10-16T05:16:01;13.12;;;13.07;;
38266;SDS011;24063;51.794;19.578;2022-10-16T05:17:03;12.76;;;12.72;;
38266;SDS011;24063;51.794;19.578;2022-10-16T05:18:05;12.35;;;12.28;;
38266;SDS011;24063;51.794;19.578;2022-10-16T05:19:06;12.76;;;12.70;;
38266;SDS011;24063;51.794;19.578;2022-10-16T05:20:28;13.54;;;13.45;;
38266;SDS011;24063;51.794;19.578;2022-10-16T05:21:30;12.63;;;12.52;;
38266;SDS011;24063;51.794;19.578;2022-10-16T05:22:32;12.42;;;12.37;;
38266;SDS011;24063;51.794;19.578;2022-10-16T05:23:34;13.35;;;13.31;;
38266;SDS011;24063;51.794;19.578;2022-10-16T05:24:35;12.31;;;12.28;;
38266;SDS011;24063;51.794;19.578;2022-10-16T05:25:37;12.52;;;12.52;;
38266;SDS011;24063;51.794;19.578;2022-10-16T05:26:42;12.68;;;12.68;;
38266;SDS011;24063;51.794;19.578;2022-10-16T05:27:46;12.74;;;12.72;;
38266;SDS011;24063;51.794;19.578;2022-10-16T05:28:49;13.50;;;13.40;;
38266;SDS011;24063;51.794;19.578;2022-10-16T05:29:51;13.41;;;13.41;;
38266;SDS011;24063;51.794;19.578;2022-10-16T05:30:53;13.04;;;13.03;;
38266;SDS011;24063;51.794;19.578;2022-10-16T05:31:55;13.56;;;13.55;;
38266;SDS011;24063;51.794;19.578;2022-10-16T05:32:57;13.43;;;13.34;;
38266;SDS011;24063;51.794;19.578;2022-10-16T05:33:59;13.07;;;13.06;;
38266;SDS011;24063;51.794;19.578;2022-10-16T05:35:01;13.08;;;13.08;;
38266;SDS011;24063;51.794;19.578;2022-10-16T05:36:06;13.11;;;13.10;;
38266;SDS011;24063;51.794;19.578;2022-10-16T05:37:10;13.00;;;12.89;;
38266;SDS011;24063;51.794;19.578;2022-10-16T05:38:13;13.85;;;13.69;;
38266;SDS011;24063;51.794;19.578;2022-10-16T05:39:15;13.54;;;13.54;;
38266;SDS011;24063;51.794;19.578;2022-10-16T05:40:17;14.09;;;14.09;;
38266;SDS011;24063;51.794;19.578;2022-10-16T05:41:19;13.56;;;13.51;;
38266;SDS011;24063;51.794;19.578;2022-10-16T05:42:23;14.11;;;14.07;;
38266;SDS011;24063;51.794;19.578;2022-10-16T05:43:24;14.12;;;14.12;;
38266;SDS011;24063;51.794;19.578;2022-10-16T05:44:26;13.55;;;13.55;;
38266;SDS011;24063;51.794;19.578;2022-10-16T05:45:28;13.55;;;13.55;;
38266;SDS011;24063;51.794;19.578;2022-10-16T05:46:30;14.56;;;14.55;;
38266;SDS011;24063;51.794;19.578;2022-10-16T05:47:32;14.40;;;14.22;;
38266;SDS011;24063;51.794;19.578;2022-10-16T05:48:33;14.06;;;13.86;;
38266;SDS011;24063;51.794;19.578;2022-10-16T05:49:35;13.74;;;13.69;;
38266;SDS011;24063;51.794;19.578;2022-10-16T05:50:41;14.05;;;14.05;;
38266;SDS011;24063;51.794;19.578;2022-10-16T05:51:43;14.03;;;13.98;;
38266;SDS011;24063;51.794;19.578;2022-10-16T05:52:45;14.51;;;14.40;;
38266;SDS011;24063;51.794;19.578;2022-10-16T05:53:47;13.13;;;13.06;;
38266;SDS011;24063;51.794;19.578;2022-10-16T05:54:48;13.90;;;13.90;;
38266;SDS011;24063;51.794;19.578;2022-10-16T05:55:51;13.50;;;13.50;;
38266;SDS011;24063;51.794;19.578;2022-10-16T05:56:54;13.65;;;13.63;;
38266;SDS011;24063;51.794;19.578;2022-10-16T05:57:56;13.98;;;13.93;;
38266;SDS011;24063;51.794;19.578;2022-10-16T05:58:58;14.01;;;14.01;;
38266;SDS011;24063;51.794;19.578;2022-10-16T05:59:59;13.57;;;13.57;;
38266;SDS011;24063;51.794;19.578;2022-10-16T06:01:03;14.29;;;14.28;;
38266;SDS011;24063;51.794;19.578;2022-10-16T06:02:08;14.06;;;14.06;;
38266;SDS011;24063;51.794;19.578;2022-10-16T06:03:14;16.67;;;16.67;;
38266;SDS011;24063;51.794;19.578;2022-10-16T06:04:16;14.80;;;14.80;;
38266;SDS011;24063;51.794;19.578;2022-10-16T06:05:17;14.85;;;14.82;;
38266;SDS011;24063;51.794;19.578;2022-10-16T06:06:20;15.21;;;15.11;;
38266;SDS011;24063;51.794;19.578;2022-10-16T06:07:24;13.86;;;13.85;;
38266;SDS011;24063;51.794;19.578;2022-10-16T06:08:26;13.73;;;13.68;;
38266;SDS011;24063;51.794;19.578;2022-10-16T06:09:28;13.09;;;13.03;;
38266;SDS011;24063;51.794;19.578;2022-10-16T06:10:29;13.09;;;13.07;;
38266;SDS011;24063;51.794;19.578;2022-10-16T06:11:31;14.09;;;14.09;;
38266;SDS011;24063;51.794;19.578;2022-10-16T06:12:34;13.92;;;13.87;;
38266;SDS011;24063;51.794;19.578;2022-10-16T06:13:36;13.61;;;13.60;;
38266;SDS011;24063;51.794;19.578;2022-10-16T06:14:38;13.86;;;13.86;;
38266;SDS011;24063;51.794;19.578;2022-10-16T06:15:40;14.62;;;14.62;;
38266;SDS011;24063;51.794;19.578;2022-10-16T06:16:44;14.92;;;14.92;;
38266;SDS011;24063;51.794;19.578;2022-10-16T06:17:46;13.64;;;13.63;;
38266;SDS011;24063;51.794;19.578;2022-10-16T06:18:47;14.73;;;14.73;;
38266;SDS011;24063;51.794;19.578;2022-10-16T06:19:51;14.84;;;14.84;;
38266;SDS011;24063;51.794;19.578;2022-10-16T06:20:53;14.68;;;14.68;;
38266;SDS011;24063;51.794;19.578;2022-10-16T06:21:55;14.56;;;14.56;;